createdAt,value
2017-10-28T00:01:54.473Z,3.90
2017-10-28T00:04:22.343Z,3.35
2017-10-28T00:06:50.211Z,3.83
2017-10-28T00:09:18.087Z,3.95
2017-10-28T00:11:45.944Z,3.55
2017-10-28T00:14:13.809Z,3.08
2017-10-28T00:16:41.681Z,3.22
2017-10-28T00:19:09.543Z,3.25
2017-10-28T00:21:37.410Z,3.05
2017-10-28T00:24:05.277Z,3.00
2017-10-28T00:26:33.144Z,3.20
2017-10-28T00:29:01.020Z,3.67
2017-10-28T00:31:34.751Z,3.03
2017-10-28T00:34:08.932Z,3.58
2017-10-28T00:36:36.800Z,3.30
2017-10-28T00:39:04.786Z,2.90
2017-10-28T00:41:33.456Z,3.08
2017-10-28T00:44:01.324Z,3.70
2017-10-28T00:46:29.192Z,4.22
2017-10-28T00:48:57.058Z,3.85
2017-10-28T00:51:24.925Z,3.55
2017-10-28T00:53:53.107Z,3.37
2017-10-28T00:56:20.968Z,3.08
2017-10-28T00:58:48.834Z,2.85
2017-10-28T01:01:16.702Z,3.70
2017-10-28T01:03:44.583Z,3.58
2017-10-28T01:06:12.436Z,3.75
2017-10-28T01:08:40.303Z,3.25
2017-10-28T01:11:08.171Z,3.67
2017-10-28T01:13:36.045Z,3.05
2017-10-28T01:16:03.906Z,3.53
2017-10-28T01:18:31.773Z,3.80
2017-10-28T01:20:59.640Z,4.15
2017-10-28T01:23:27.508Z,4.10
2017-10-28T01:25:55.375Z,3.67
2017-10-28T01:28:23.242Z,3.83
2017-10-28T01:30:51.109Z,3.12
2017-10-28T01:33:18.976Z,3.25
2017-10-28T01:35:46.844Z,3.03
2017-10-28T01:38:14.712Z,3.53
2017-10-28T01:40:42.578Z,2.67
2017-10-28T01:43:10.446Z,4.10
2017-10-28T01:45:38.313Z,3.67
2017-10-28T01:48:06.185Z,3.40
2017-10-28T01:50:34.048Z,5.72
2017-10-28T01:53:01.915Z,3.10
2017-10-28T01:55:29.783Z,3.60
2017-10-28T01:57:57.651Z,3.25
2017-10-28T02:00:25.518Z,2.72
2017-10-28T02:02:53.384Z,4.03
2017-10-28T02:05:21.252Z,3.22
2017-10-28T02:07:49.055Z,3.20
2017-10-28T02:10:17.704Z,3.47
2017-10-28T02:12:45.571Z,3.30
2017-10-28T02:15:13.438Z,2.90
2017-10-28T02:17:41.306Z,3.40
2017-10-28T02:20:09.177Z,3.45
2017-10-28T02:22:37.040Z,2.45
2017-10-28T02:25:04.906Z,3.10
2017-10-28T02:27:32.794Z,2.95
2017-10-28T02:30:01.464Z,2.80
2017-10-28T02:32:29.329Z,2.83
2017-10-28T02:34:57.097Z,3.00
2017-10-28T02:37:24.961Z,3.42
2017-10-28T02:39:52.828Z,2.95
2017-10-28T02:42:20.695Z,3.10
2017-10-28T02:44:48.494Z,3.95
2017-10-28T02:47:17.147Z,2.62
2017-10-28T02:49:45.014Z,3.62
2017-10-28T02:52:12.881Z,3.87
2017-10-28T02:54:40.749Z,3.45
2017-10-28T02:57:08.616Z,4.03
2017-10-28T02:59:36.483Z,3.75
2017-10-28T03:02:04.356Z,3.53
2017-10-28T03:04:32.222Z,3.72
2017-10-28T03:07:00.088Z,3.92
2017-10-28T03:09:27.958Z,5.20
2017-10-28T03:11:55.827Z,3.40
2017-10-28T03:14:23.691Z,3.45
2017-10-28T03:16:51.559Z,3.87
2017-10-28T03:19:19.424Z,4.30
2017-10-28T03:21:47.290Z,3.65
2017-10-28T03:24:15.159Z,3.80
2017-10-28T03:26:43.024Z,3.70
2017-10-28T03:29:10.892Z,3.40
2017-10-28T03:31:38.759Z,3.33
2017-10-28T03:34:06.625Z,3.62
2017-10-28T03:36:34.494Z,4.72
2017-10-28T03:39:02.364Z,4.22
2017-10-28T03:41:30.227Z,3.92
2017-10-28T03:43:58.095Z,4.78
2017-10-28T03:46:25.961Z,3.97
2017-10-28T03:48:53.759Z,3.90
2017-10-28T03:51:22.415Z,4.72
2017-10-28T03:53:50.280Z,4.45
2017-10-28T03:56:18.149Z,4.25
2017-10-28T03:58:46.015Z,4.25
2017-10-28T04:01:13.883Z,3.75
2017-10-28T04:03:41.751Z,3.83
2017-10-28T04:06:09.618Z,3.60
2017-10-28T04:08:37.484Z,4.15
2017-10-28T04:11:05.353Z,3.95
2017-10-28T04:13:33.224Z,4.57
2017-10-28T04:16:01.600Z,3.90
2017-10-28T04:18:29.465Z,4.50
2017-10-28T04:20:57.268Z,5.87
2017-10-28T04:23:25.917Z,6.20
2017-10-28T04:25:53.784Z,8.35
2017-10-28T04:28:21.652Z,6.20
2017-10-28T04:30:49.520Z,6.93
2017-10-28T04:33:17.387Z,6.53
2017-10-28T04:35:45.257Z,6.45
2017-10-28T04:38:12.990Z,7.00
2017-10-28T04:40:42.730Z,7.12
2017-10-28T04:43:10.598Z,6.20
2017-10-28T04:45:38.464Z,7.22
2017-10-28T04:48:06.331Z,5.82
2017-10-28T04:50:34.126Z,6.90
2017-10-28T04:53:01.965Z,5.57
2017-10-28T04:55:29.831Z,7.85
2017-10-28T04:57:57.698Z,5.53
2017-10-28T05:00:25.586Z,5.18
2017-10-28T05:02:54.253Z,5.57
2017-10-28T05:05:22.120Z,5.40
2017-10-28T05:07:49.989Z,5.20
2017-10-28T05:10:17.856Z,5.72
2017-10-28T05:12:45.722Z,5.95
2017-10-28T05:15:13.589Z,5.40
2017-10-28T05:17:41.457Z,5.32
2017-10-28T05:20:09.324Z,5.45
2017-10-28T05:22:37.191Z,6.03
2017-10-28T05:25:04.990Z,5.85
2017-10-28T05:27:33.572Z,5.78
2017-10-28T05:30:02.154Z,5.35
2017-10-28T05:32:33.291Z,6.97
2017-10-28T05:35:01.799Z,6.45
2017-10-28T05:37:29.526Z,6.30
2017-10-28T05:39:57.293Z,7.05
2017-10-28T05:42:25.068Z,7.20
2017-10-28T05:44:52.912Z,5.53
2017-10-28T05:47:20.779Z,6.12
2017-10-28T05:49:48.648Z,6.50
2017-10-28T05:52:16.513Z,7.28
2017-10-28T05:54:44.382Z,6.60
2017-10-28T05:57:12.350Z,5.72
2017-10-28T05:59:40.322Z,5.75
2017-10-28T06:02:08.188Z,6.22
2017-10-28T06:04:36.057Z,6.28
2017-10-28T06:07:03.923Z,7.00
2017-10-28T06:09:31.797Z,6.18
2017-10-28T06:11:59.662Z,6.85
2017-10-28T06:14:27.526Z,6.35
2017-10-28T06:16:55.391Z,6.90
2017-10-28T06:19:23.265Z,7.18
2017-10-28T06:21:51.131Z,6.65
2017-10-28T06:24:18.999Z,7.72
2017-10-28T06:26:46.863Z,7.10
2017-10-28T06:29:14.831Z,6.40
2017-10-28T06:31:42.699Z,6.70
2017-10-28T06:34:10.565Z,6.28
2017-10-28T06:36:38.432Z,6.43
2017-10-28T06:39:06.300Z,6.70
2017-10-28T06:41:34.168Z,5.50
2017-10-28T06:44:02.034Z,6.00
2017-10-28T06:46:29.902Z,5.62
2017-10-28T06:48:57.770Z,6.15
2017-10-28T06:51:25.638Z,5.15
2017-10-28T06:53:53.504Z,4.93
2017-10-28T06:56:21.372Z,5.32
2017-10-28T06:58:49.239Z,5.78
2017-10-28T07:01:17.107Z,5.32
2017-10-28T07:03:44.972Z,5.12
2017-10-28T07:06:12.841Z,5.68
2017-10-28T07:08:40.708Z,4.75
2017-10-28T07:11:08.576Z,5.75
2017-10-28T07:13:36.443Z,5.20
2017-10-28T07:16:04.310Z,5.90
2017-10-28T07:18:32.187Z,4.97
2017-10-28T07:21:00.147Z,5.43
2017-10-28T07:23:28.015Z,5.28
2017-10-28T07:25:55.882Z,4.95
2017-10-28T07:28:23.748Z,5.93
2017-10-28T07:30:51.616Z,5.40
2017-10-28T07:33:19.486Z,5.32
2017-10-28T07:35:47.350Z,4.93
2017-10-28T07:38:15.219Z,5.55
2017-10-28T07:40:43.188Z,5.72
2017-10-28T07:43:11.056Z,6.12
2017-10-28T07:45:38.923Z,5.87
2017-10-28T07:48:06.789Z,5.85
2017-10-28T07:50:34.657Z,6.68
2017-10-28T07:53:02.524Z,6.30
2017-10-28T07:55:30.392Z,5.85
2017-10-28T07:57:58.258Z,5.50
2017-10-28T08:00:26.050Z,5.62
2017-10-28T08:02:53.891Z,4.82
2017-10-28T08:05:21.758Z,3.90
2017-10-28T08:07:49.628Z,3.83
2017-10-28T08:10:17.493Z,4.40
2017-10-28T08:12:45.360Z,3.62
2017-10-28T08:15:13.227Z,4.05
2017-10-28T08:17:41.094Z,5.05
2017-10-28T08:20:08.963Z,3.78
2017-10-28T08:22:36.830Z,3.75
2017-10-28T08:25:04.696Z,3.78
2017-10-28T08:27:32.564Z,3.80
2017-10-28T08:30:00.431Z,3.87
2017-10-28T08:32:28.302Z,3.50
2017-10-28T08:34:56.167Z,4.62
2017-10-28T08:37:24.034Z,4.12
2017-10-28T08:39:51.901Z,3.78
2017-10-28T08:42:19.768Z,3.37
2017-10-28T08:44:47.636Z,3.58
2017-10-28T08:47:15.605Z,4.25
2017-10-28T08:49:43.472Z,3.55
2017-10-28T08:52:11.341Z,3.70
2017-10-28T08:54:39.207Z,3.70
2017-10-28T08:57:07.280Z,3.05
2017-10-28T08:59:35.148Z,3.87
2017-10-28T09:02:02.943Z,3.45
2017-10-28T09:04:31.610Z,3.80
2017-10-28T09:06:59.466Z,3.90
2017-10-28T09:09:27.332Z,3.70
2017-10-28T09:11:55.200Z,3.60
2017-10-28T09:14:23.066Z,3.78
2017-10-28T09:16:50.935Z,3.92
2017-10-28T09:19:18.835Z,3.47
2017-10-28T09:21:50.286Z,3.35
2017-10-28T09:24:21.742Z,3.42
2017-10-28T09:26:52.591Z,3.83
2017-10-28T09:29:23.189Z,4.20
2017-10-28T09:31:54.214Z,4.80
2017-10-28T09:34:25.062Z,4.30
2017-10-28T09:36:56.750Z,4.22
2017-10-28T09:39:27.582Z,4.20
2017-10-28T09:41:58.021Z,3.62
2017-10-28T09:44:25.852Z,3.70
2017-10-28T09:46:53.709Z,3.60
2017-10-28T09:49:21.574Z,3.53
2017-10-28T09:51:49.442Z,4.15
2017-10-28T09:54:18.174Z,4.40
2017-10-28T09:56:46.815Z,3.80
2017-10-28T09:59:14.683Z,4.82
2017-10-28T10:01:42.551Z,3.97
2017-10-28T10:04:10.417Z,4.30
2017-10-28T10:06:38.285Z,3.90
2017-10-28T10:09:06.153Z,4.40
2017-10-28T10:11:34.020Z,3.97
2017-10-28T10:14:01.886Z,4.50
2017-10-28T10:16:29.760Z,5.18
2017-10-28T10:18:57.620Z,4.65
2017-10-28T10:21:27.217Z,4.82
2017-10-28T10:23:56.698Z,4.37
2017-10-28T10:26:24.499Z,5.28
2017-10-28T10:28:52.367Z,4.68
2017-10-28T10:31:20.246Z,4.87
2017-10-28T10:33:48.921Z,5.32
2017-10-28T10:36:16.789Z,5.62
2017-10-28T10:38:44.656Z,6.18
2017-10-28T10:41:12.523Z,5.70
2017-10-28T10:43:40.511Z,5.85
2017-10-28T10:46:08.361Z,6.37
2017-10-28T10:48:36.227Z,6.80
2017-10-28T10:51:04.096Z,6.32
2017-10-28T10:53:31.962Z,5.55
2017-10-28T10:55:59.829Z,5.80
2017-10-28T10:58:27.697Z,6.62
2017-10-28T11:00:55.564Z,6.60
2017-10-28T11:03:23.431Z,6.70
2017-10-28T11:05:51.299Z,6.00
2017-10-28T11:08:19.201Z,6.22
2017-10-28T11:10:47.858Z,6.32
2017-10-28T11:13:15.720Z,7.12
2017-10-28T11:15:43.587Z,6.78
2017-10-28T11:18:11.455Z,5.95
2017-10-28T11:20:39.321Z,6.22
2017-10-28T11:23:07.189Z,6.32
2017-10-28T11:25:35.056Z,6.47
2017-10-28T11:28:02.924Z,6.22
2017-10-28T11:30:30.792Z,6.37
2017-10-28T11:32:58.658Z,5.72
2017-10-28T11:35:26.525Z,5.07
2017-10-28T11:37:54.392Z,5.90
2017-10-28T11:40:22.260Z,6.05
2017-10-28T11:42:50.127Z,6.05
2017-10-28T11:45:17.995Z,5.22
2017-10-28T11:47:45.864Z,6.50
2017-10-28T11:50:13.730Z,8.35
2017-10-28T11:52:41.596Z,6.97
2017-10-28T11:55:09.465Z,6.40
2017-10-28T11:57:37.332Z,6.30
2017-10-28T12:00:05.199Z,5.75
2017-10-28T12:02:33.066Z,5.72
2017-10-28T12:05:00.944Z,6.18
2017-10-28T12:07:28.801Z,5.60
2017-10-28T12:09:56.668Z,6.12
2017-10-28T12:12:24.534Z,6.05
2017-10-28T12:14:52.403Z,5.40
2017-10-28T12:17:20.270Z,5.57
2017-10-28T12:19:48.066Z,6.32
2017-10-28T12:22:16.721Z,6.40
2017-10-28T12:24:44.591Z,6.20
2017-10-28T12:27:12.457Z,6.10
2017-10-28T12:29:40.324Z,6.10
2017-10-28T12:32:08.191Z,5.35
2017-10-28T12:34:36.058Z,6.50
2017-10-28T12:37:03.925Z,6.03
2017-10-28T12:39:32.439Z,5.90
2017-10-28T12:42:00.926Z,5.60
2017-10-28T12:44:29.577Z,5.93
2017-10-28T12:46:57.447Z,5.30
2017-10-28T12:49:25.416Z,6.25
2017-10-28T12:51:53.214Z,5.40
2017-10-28T12:54:21.868Z,5.60
2017-10-28T12:56:49.732Z,4.80
2017-10-28T12:59:17.602Z,4.18
2017-10-28T13:01:45.541Z,4.50
2017-10-28T13:04:13.333Z,4.03
2017-10-28T13:06:41.200Z,4.50
2017-10-28T13:09:09.078Z,5.53
2017-10-28T13:11:36.935Z,4.50
2017-10-28T13:14:04.802Z,4.45
2017-10-28T13:16:32.670Z,3.85
2017-10-28T13:19:00.536Z,3.92
2017-10-28T13:21:28.404Z,4.65
2017-10-28T13:23:56.272Z,4.10
2017-10-28T13:26:24.138Z,4.10
2017-10-28T13:28:52.007Z,4.10
2017-10-28T13:31:19.873Z,4.03
2017-10-28T13:33:47.743Z,3.80
2017-10-28T13:36:15.608Z,3.45
2017-10-28T13:38:43.475Z,3.55
2017-10-28T13:41:11.342Z,4.30
2017-10-28T13:43:39.210Z,4.00
2017-10-28T13:46:07.076Z,3.75
2017-10-28T13:48:34.944Z,3.90
2017-10-28T13:51:02.811Z,3.80
2017-10-28T13:53:30.679Z,3.92
2017-10-28T13:55:58.547Z,3.15
2017-10-28T13:58:26.414Z,3.53
2017-10-28T14:00:54.281Z,3.12
2017-10-28T14:03:22.149Z,3.10
2017-10-28T14:05:50.020Z,3.17
2017-10-28T14:08:17.884Z,3.10
2017-10-28T14:10:45.750Z,3.60
2017-10-28T14:13:13.618Z,3.15
2017-10-28T14:15:41.485Z,3.10
2017-10-28T14:18:09.356Z,3.08
2017-10-28T14:20:37.220Z,2.95
2017-10-28T14:23:05.087Z,2.90
2017-10-28T14:25:32.958Z,3.00
2017-10-28T14:28:00.822Z,3.00
2017-10-28T14:30:28.689Z,2.70
2017-10-28T14:32:56.557Z,3.58
2017-10-28T14:35:24.351Z,2.62
2017-10-28T14:37:52.189Z,2.87
2017-10-28T14:40:20.056Z,2.60
2017-10-28T14:42:47.923Z,2.42
2017-10-28T14:45:15.791Z,2.90
2017-10-28T14:47:43.556Z,2.60
2017-10-28T14:50:11.423Z,3.05
2017-10-28T14:52:39.290Z,2.62
2017-10-28T14:55:07.157Z,2.70
2017-10-28T14:57:35.027Z,2.95
2017-10-28T15:00:02.893Z,2.83
2017-10-28T15:02:30.759Z,2.70
2017-10-28T15:04:58.627Z,3.17
2017-10-28T15:07:26.494Z,2.55
2017-10-28T15:09:54.361Z,2.87
2017-10-28T15:12:22.229Z,2.47
2017-10-28T15:14:50.095Z,2.90
2017-10-28T15:17:17.964Z,3.10
2017-10-28T15:19:45.831Z,2.53
2017-10-28T15:22:13.698Z,3.28
2017-10-28T15:24:41.565Z,2.40
2017-10-28T15:27:09.433Z,2.75
2017-10-28T15:29:37.305Z,2.40
2017-10-28T15:32:05.167Z,3.03
2017-10-28T15:34:33.035Z,3.55
2017-10-28T15:37:00.901Z,2.80
2017-10-28T15:39:28.769Z,2.80
2017-10-28T15:41:56.642Z,3.40
2017-10-28T15:44:24.503Z,2.72
2017-10-28T15:46:52.370Z,2.75
2017-10-28T15:49:20.238Z,3.85
2017-10-28T15:51:48.105Z,3.00
2017-10-28T15:54:15.975Z,3.10
2017-10-28T15:56:43.840Z,3.03
2017-10-28T15:59:11.699Z,3.08
2017-10-28T16:01:39.590Z,3.10
2017-10-28T16:04:07.446Z,3.10
2017-10-28T16:06:35.310Z,4.03
2017-10-28T16:09:03.180Z,3.05
2017-10-28T16:11:31.047Z,3.50
2017-10-28T16:13:58.916Z,3.78
2017-10-28T16:16:26.788Z,3.40
2017-10-28T16:18:54.647Z,7.12
2017-10-28T16:21:22.514Z,3.25
2017-10-28T16:23:50.381Z,4.07
2017-10-28T16:26:18.247Z,3.80
2017-10-28T16:28:46.116Z,3.90
2017-10-28T16:31:13.983Z,3.45
2017-10-28T16:33:41.849Z,4.30
2017-10-28T16:36:09.716Z,4.70
2017-10-28T16:38:37.585Z,3.72
2017-10-28T16:41:05.451Z,4.25
2017-10-28T16:43:33.319Z,3.37
2017-10-28T16:46:01.187Z,3.95
2017-10-28T16:48:29.052Z,3.67
2017-10-28T16:50:56.921Z,3.35
2017-10-28T16:53:24.789Z,3.20
2017-10-28T16:55:52.655Z,3.25
2017-10-28T16:58:20.831Z,3.30
2017-10-28T17:00:48.703Z,3.40
2017-10-28T17:03:16.565Z,3.78
2017-10-28T17:05:44.434Z,4.10
2017-10-28T17:08:12.299Z,3.28
2017-10-28T17:10:40.166Z,3.00
2017-10-28T17:13:08.034Z,3.58
2017-10-28T17:15:35.901Z,3.87
2017-10-28T17:18:03.767Z,3.15
2017-10-28T17:20:31.637Z,3.20
2017-10-28T17:22:59.478Z,2.97
2017-10-28T17:25:27.371Z,3.40
2017-10-28T17:27:55.238Z,3.15
2017-10-28T17:30:23.105Z,3.08
2017-10-28T17:32:50.973Z,3.25
2017-10-28T17:35:18.840Z,2.90
2017-10-28T17:37:46.706Z,2.92
2017-10-28T17:40:14.574Z,3.40
2017-10-28T17:42:42.441Z,3.42
2017-10-28T17:45:10.309Z,3.15
2017-10-28T17:47:38.177Z,4.03
2017-10-28T17:50:06.044Z,3.15
2017-10-28T17:52:33.911Z,4.00
2017-10-28T17:55:01.781Z,3.20
2017-10-28T17:57:29.645Z,3.40
2017-10-28T17:59:57.513Z,3.78
2017-10-28T18:02:25.377Z,4.05
2017-10-28T18:04:53.248Z,3.85
2017-10-28T18:07:21.123Z,2.97
2017-10-28T18:09:48.982Z,3.30
2017-10-28T18:12:19.005Z,3.60
2017-10-28T18:14:46.970Z,3.12
2017-10-28T18:17:15.389Z,3.53
2017-10-28T18:19:44.035Z,3.30
2017-10-28T18:22:11.903Z,3.33
2017-10-28T18:24:40.078Z,3.25
2017-10-28T18:27:07.944Z,2.55
2017-10-28T18:29:35.991Z,2.62
2017-10-28T18:32:04.811Z,3.00
2017-10-28T18:34:32.679Z,2.97
2017-10-28T18:37:00.540Z,2.53
2017-10-28T18:39:29.744Z,5.75
2017-10-28T18:41:58.426Z,2.80
2017-10-28T18:44:28.278Z,3.00
2017-10-28T18:46:56.209Z,4.05
